Time;durP1;ratioP1;P1;durP2;ratioP2;P2;SDS_P1;SDS_P2;PMS_P1;PMS_P2;Temp;Humidity;BMP_temperature;BMP_pressure;BME280_temperature;BME280_humidity;BME280_pressure;Samples;Min_cycle;Max_cycle;Signal;HPM_P1;HPM_P2
2022/04/08 00:01:03;;;;;;;17.45;3.22;;;;;;;;;;5079484;28;20047;-75
2022/04/08 00:03:28;;;;;;;18.60;3.08;;;;;;;;;;5062644;28;20044;-75
2022/04/08 00:05:54;;;;;;;22.27;2.47;;;;;;;;;;5082427;28;20028;-74
2022/04/08 00:08:21;;;;;;;7.20;2.03;;;;;;;;;;5080566;28;20024;-75
2022/04/08 00:10:47;;;;;;;17.88;3.55;;;;;;;;;;5079976;28;20020;-75
2022/04/08 00:13:13;;;;;;;11.63;2.22;;;;;;;;;;5082235;28;20317;-74
2022/04/08 00:15:39;;;;;;;10.73;2.53;;;;;;;;;;5064651;28;20104;-74
2022/04/08 00:18:06;;;;;;;18.23;2.72;;;;;;;;;;5080392;28;20044;-74
2022/04/08 00:20:32;;;;;;;15.93;3.08;;;;;;;;;;5076787;28;20040;-74
2022/04/08 00:22:58;;;;;;;17.70;2.78;;;;;;;;;;5079747;28;20033;-73
2022/04/08 00:25:24;;;;;;;24.63;3.25;;;;;;;;;;5079927;28;20016;-74
2022/04/08 00:27:50;;;;;;;14.15;2.92;;;;;;;;;;5081587;28;20021;-74
2022/04/08 00:30:15;;;;;;;14.30;3.28;;;;;;;;;;5076196;28;20028;-75
2022/04/08 00:32:41;;;;;;;12.57;2.42;;;;;;;;;;5078756;28;20156;-74
2022/04/08 00:35:07;;;;;;;18.15;3.47;;;;;;;;;;5080291;28;20181;-74
2022/04/08 00:37:32;;;;;;;17.25;3.38;;;;;;;;;;5062972;28;20032;-74
2022/04/08 00:39:57;;;;;;;14.00;2.67;;;;;;;;;;5080399;28;20020;-74
2022/04/08 00:42:23;;;;;;;12.18;2.15;;;;;;;;;;5079140;28;20096;-74
2022/04/08 00:44:48;;;;;;;20.15;2.55;;;;;;;;;;5084085;28;20143;-74
2022/04/08 00:47:15;;;;;;;20.90;3.17;;;;;;;;;;5059728;28;20081;-74
2022/04/08 00:49:41;;;;;;;20.98;3.38;;;;;;;;;;5062206;28;20024;-74
2022/04/08 00:52:07;;;;;;;15.68;2.58;;;;;;;;;;5057765;28;20016;-74
2022/04/08 00:54:33;;;;;;;14.07;2.63;;;;;;;;;;5077462;28;20087;-74
2022/04/08 00:56:59;;;;;;;11.93;2.63;;;;;;;;;;5080502;28;20194;-75
2022/04/08 00:59:26;;;;;;;18.27;2.95;;;;;;;;;;5074274;28;20020;-74
2022/04/08 01:01:51;;;;;;;8.63;2.65;;;;;;;;;;5074379;28;20291;-74
2022/04/08 01:04:17;;;;;;;14.52;2.50;;;;;;;;;;5078965;28;20039;-74
2022/04/08 01:06:44;;;;;;;20.58;3.00;;;;;;;;;;5076556;28;20074;-75
2022/04/08 01:09:10;;;;;;;17.45;2.30;;;;;;;;;;5075973;28;20017;-74
2022/04/08 01:11:37;;;;;;;17.90;3.33;;;;;;;;;;5079576;28;20342;-73
2022/04/08 01:14:14;;;;;;;15.95;3.20;;;;;;;;;;5077953;28;20087;-75
2022/04/08 01:16:40;;;;;;;18.92;2.60;;;;;;;;;;5077712;28;20099;-73
2022/04/08 01:19:06;;;;;;;15.77;2.47;;;;;;;;;;5096771;28;20040;-73
2022/04/08 01:21:33;;;;;;;18.20;3.42;;;;;;;;;;5080394;28;20032;-73
2022/04/08 01:24:00;;;;;;;14.00;2.55;;;;;;;;;;5078111;28;20021;-74
2022/04/08 01:26:26;;;;;;;12.35;2.65;;;;;;;;;;5061147;28;20016;-73
2022/04/08 01:28:53;;;;;;;13.13;2.38;;;;;;;;;;5075772;28;20259;-74
2022/04/08 01:31:18;;;;;;;13.65;3.25;;;;;;;;;;5071524;28;20024;-73
2022/04/08 01:33:44;;;;;;;8.65;2.17;;;;;;;;;;5077317;28;20021;-73
2022/04/08 01:36:10;;;;;;;10.88;2.28;;;;;;;;;;5080529;28;20070;-73
2022/04/08 01:38:36;;;;;;;4.45;1.63;;;;;;;;;;5079308;28;20318;-74
2022/04/08 01:41:01;;;;;;;9.43;2.58;;;;;;;;;;5076533;28;20031;-73
2022/04/08 01:43:27;;;;;;;15.48;2.50;;;;;;;;;;5082131;28;20036;-74
2022/04/08 01:45:52;;;;;;;11.50;2.25;;;;;;;;;;5081232;28;20282;-74
2022/04/08 01:48:18;;;;;;;8.60;1.65;;;;;;;;;;5062235;28;20334;-74
2022/04/08 01:50:44;;;;;;;16.77;2.53;;;;;;;;;;5076514;28;20059;-74
2022/04/08 01:53:10;;;;;;;9.98;2.30;;;;;;;;;;5095247;28;20012;-74
2022/04/08 01:55:35;;;;;;;13.57;2.72;;;;;;;;;;5077600;28;20283;-74
2022/04/08 01:58:04;;;;;;;13.52;2.92;;;;;;;;;;5080534;28;20081;-75
2022/04/08 02:00:30;;;;;;;17.08;2.85;;;;;;;;;;5077880;28;20017;-74
2022/04/08 02:02:56;;;;;;;15.00;2.67;;;;;;;;;;5073912;28;20299;-75
2022/04/08 02:05:21;;;;;;;11.02;2.53;;;;;;;;;;5076359;28;20159;-74
2022/04/08 02:07:47;;;;;;;7.97;2.33;;;;;;;;;;5062933;28;20024;-75
2022/04/08 02:10:12;;;;;;;13.73;2.75;;;;;;;;;;5060291;28;20043;-75
2022/04/08 02:12:38;;;;;;;12.00;2.47;;;;;;;;;;5076924;28;20017;-75
2022/04/08 02:15:04;;;;;;;7.93;2.70;;;;;;;;;;5063472;28;20088;-75
2022/04/08 02:17:30;;;;;;;22.52;2.78;;;;;;;;;;5078342;28;20557;-75
2022/04/08 02:19:56;;;;;;;14.52;2.30;;;;;;;;;;5076865;28;20043;-74
2022/04/08 02:22:25;;;;;;;15.65;2.70;;;;;;;;;;5093803;28;20166;-75
2022/04/08 02:24:52;;;;;;;11.88;2.33;;;;;;;;;;5078861;28;20028;-74
2022/04/08 02:27:18;;;;;;;11.65;2.00;;;;;;;;;;5076918;28;20076;-74
2022/04/08 02:29:44;;;;;;;11.38;2.28;;;;;;;;;;5077966;28;20020;-74
2022/04/08 02:32:10;;;;;;;11.82;1.92;;;;;;;;;;5070491;28;20182;-75
2022/04/08 02:34:39;;;;;;;8.90;2.28;;;;;;;;;;5059470;28;20114;-75
2022/04/08 02:37:07;;;;;;;12.07;2.08;;;;;;;;;;5077322;28;20019;-74
2022/04/08 02:39:33;;;;;;;15.18;1.70;;;;;;;;;;5078347;28;20008;-75
2022/04/08 02:41:59;;;;;;;9.73;1.95;;;;;;;;;;5093295;28;20021;-75
2022/04/08 02:44:25;;;;;;;18.75;2.83;;;;;;;;;;5059328;28;20020;-74
2022/04/08 02:46:50;;;;;;;9.13;2.17;;;;;;;;;;5076936;28;20243;-74
2022/04/08 02:49:16;;;;;;;6.65;1.70;;;;;;;;;;5077406;28;20013;-75
2022/04/08 02:51:42;;;;;;;18.02;2.30;;;;;;;;;;5053807;28;20052;-75
2022/04/08 02:54:07;;;;;;;11.07;2.13;;;;;;;;;;5060522;28;20300;-74
2022/04/08 02:56:33;;;;;;;11.85;2.20;;;;;;;;;;5078543;28;20266;-74
2022/04/08 02:59:00;;;;;;;17.77;2.97;;;;;;;;;;5078944;28;20047;-74
2022/04/08 03:01:27;;;;;;;13.00;2.20;;;;;;;;;;5045390;28;20167;-75
2022/04/08 03:03:52;;;;;;;11.70;2.10;;;;;;;;;;5076704;28;20310;-75
2022/04/08 03:06:18;;;;;;;6.22;1.98;;;;;;;;;;5075631;28;20052;-75
2022/04/08 03:08:43;;;;;;;13.38;1.98;;;;;;;;;;5044962;28;20186;-74
2022/04/08 03:11:09;;;;;;;15.02;2.25;;;;;;;;;;5066033;28;20017;-75
2022/04/08 03:13:35;;;;;;;8.38;2.00;;;;;;;;;;5049463;28;20195;-75
2022/04/08 03:16:01;;;;;;;12.88;2.28;;;;;;;;;;5075424;28;20397;-75
2022/04/08 03:18:27;;;;;;;12.38;2.28;;;;;;;;;;5078732;28;20359;-75
2022/04/08 03:20:52;;;;;;;18.42;2.25;;;;;;;;;;5043880;28;20045;-74
2022/04/08 03:23:18;;;;;;;9.25;2.70;;;;;;;;;;5077394;28;20146;-75
2022/04/08 03:25:43;;;;;;;18.92;2.72;;;;;;;;;;5042815;28;20077;-75
2022/04/08 03:28:09;;;;;;;10.90;2.10;;;;;;;;;;5081976;28;20039;-75
2022/04/08 03:30:35;;;;;;;13.48;1.75;;;;;;;;;;5057333;28;20089;-75
2022/04/08 03:33:00;;;;;;;7.60;1.63;;;;;;;;;;5076932;28;20012;-75
2022/04/08 03:35:26;;;;;;;16.38;2.03;;;;;;;;;;5076559;28;20547;-75
2022/04/08 03:37:52;;;;;;;11.07;1.80;;;;;;;;;;5094655;28;20016;-75
2022/04/08 03:40:17;;;;;;;14.23;1.90;;;;;;;;;;5075830;28;20016;-74
2022/04/08 03:42:43;;;;;;;9.80;2.10;;;;;;;;;;5076008;28;20047;-74
2022/04/08 03:45:08;;;;;;;5.45;1.50;;;;;;;;;;5078089;28;20183;-74
2022/04/08 03:47:34;;;;;;;15.15;1.38;;;;;;;;;;5045765;28;20021;-75
2022/04/08 03:49:59;;;;;;;12.70;1.77;;;;;;;;;;5077241;28;20123;-74
2022/04/08 03:52:29;;;;;;;16.15;2.30;;;;;;;;;;5078726;28;20201;-74
2022/04/08 03:54:55;;;;;;;9.38;2.15;;;;;;;;;;5073217;28;20039;-75
2022/04/08 03:57:20;;;;;;;13.80;2.50;;;;;;;;;;5062324;28;20017;-75
2022/04/08 03:59:47;;;;;;;9.82;2.35;;;;;;;;;;5076773;28;20310;-74
2022/04/08 04:02:13;;;;;;;9.65;2.55;;;;;;;;;;5074131;28;20314;-74
2022/04/08 04:04:38;;;;;;;16.15;2.38;;;;;;;;;;5062301;28;20038;-75
2022/04/08 04:07:04;;;;;;;10.48;2.15;;;;;;;;;;5071152;28;20104;-75
2022/04/08 04:09:30;;;;;;;12.57;2.63;;;;;;;;;;5079401;28;20023;-75
2022/04/08 04:11:55;;;;;;;12.55;3.55;;;;;;;;;;5082932;28;20028;-75
2022/04/08 04:14:21;;;;;;;7.90;1.83;;;;;;;;;;5077167;28;20105;-74
2022/04/08 04:16:46;;;;;;;12.20;2.25;;;;;;;;;;5074654;28;20036;-74
2022/04/08 04:19:12;;;;;;;10.95;1.75;;;;;;;;;;5041559;28;20725;-74
2022/04/08 04:21:37;;;;;;;14.25;2.53;;;;;;;;;;5088629;28;20044;-75
2022/04/08 04:24:03;;;;;;;15.20;2.15;;;;;;;;;;5064478;28;20039;-75
2022/04/08 04:26:28;;;;;;;10.15;2.35;;;;;;;;;;5073988;28;20051;-75
2022/04/08 04:28:54;;;;;;;12.05;2.30;;;;;;;;;;5076152;28;20062;-75
2022/04/08 04:31:19;;;;;;;11.82;1.90;;;;;;;;;;5075217;28;20071;-74
2022/04/08 04:33:45;;;;;;;8.00;2.38;;;;;;;;;;5075986;28;20017;-74
2022/04/08 04:36:11;;;;;;;10.13;1.65;;;;;;;;;;5083492;28;20086;-75
2022/04/08 04:38:37;;;;;;;10.20;2.42;;;;;;;;;;5081332;28;20028;-75
2022/04/08 04:41:02;;;;;;;12.57;3.08;;;;;;;;;;5062018;28;20025;-75
2022/04/08 04:43:28;;;;;;;11.40;2.17;;;;;;;;;;5081007;28;20012;-75
2022/04/08 04:45:53;;;;;;;13.23;2.13;;;;;;;;;;5062538;28;20066;-74
2022/04/08 04:48:19;;;;;;;14.93;2.50;;;;;;;;;;5079080;28;20020;-75
2022/04/08 04:50:46;;;;;;;10.45;1.90;;;;;;;;;;5061088;28;20025;-75
2022/04/08 04:53:12;;;;;;;17.98;2.40;;;;;;;;;;5064223;28;20206;-75
2022/04/08 04:55:38;;;;;;;7.80;1.90;;;;;;;;;;5068471;28;20016;-74
2022/04/08 04:58:03;;;;;;;12.68;2.13;;;;;;;;;;5079004;28;20056;-74
2022/04/08 05:00:29;;;;;;;10.80;1.92;;;;;;;;;;5083048;28;20087;-74
2022/04/08 05:02:54;;;;;;;12.13;2.33;;;;;;;;;;5080534;28;20091;-74
2022/04/08 05:05:20;;;;;;;6.50;2.42;;;;;;;;;;5082747;28;20176;-74
2022/04/08 05:07:45;;;;;;;15.45;2.03;;;;;;;;;;5078522;28;20048;-75
2022/04/08 05:10:11;;;;;;;10.30;1.58;;;;;;;;;;5079423;28;20021;-75
2022/04/08 05:12:36;;;;;;;13.73;1.88;;;;;;;;;;5077991;28;20018;-75
2022/04/08 05:15:07;;;;;;;17.90;2.25;;;;;;;;;;5063097;28;20031;-75
2022/04/08 05:17:35;;;;;;;11.55;2.30;;;;;;;;;;5097239;28;20372;-74
2022/04/08 05:20:02;;;;;;;9.27;2.30;;;;;;;;;;5061213;28;20163;-74
2022/04/08 05:22:28;;;;;;;15.70;2.17;;;;;;;;;;5065279;28;20040;-75
2022/04/08 05:24:53;;;;;;;18.75;2.75;;;;;;;;;;5080038;28;20027;-75
2022/04/08 05:27:19;;;;;;;8.70;2.03;;;;;;;;;;5062383;28;20020;-74
2022/04/08 05:29:44;;;;;;;12.48;2.35;;;;;;;;;;5075871;28;20181;-75
2022/04/08 05:32:13;;;;;;;11.70;3.22;;;;;;;;;;5093850;28;20030;-75
2022/04/08 05:34:38;;;;;;;22.05;2.67;;;;;;;;;;5064071;28;20024;-75
2022/04/08 05:37:04;;;;;;;13.60;1.95;;;;;;;;;;5094763;28;20028;-74
2022/04/08 05:39:29;;;;;;;7.70;1.88;;;;;;;;;;5078895;28;20016;-75
2022/04/08 05:41:55;;;;;;;12.68;2.00;;;;;;;;;;5062379;28;20089;-74
2022/04/08 05:44:20;;;;;;;12.23;2.28;;;;;;;;;;5076372;28;20310;-75
2022/04/08 05:46:46;;;;;;;16.80;2.28;;;;;;;;;;5078782;28;20103;-74
2022/04/08 05:49:11;;;;;;;8.65;1.85;;;;;;;;;;5093443;28;20096;-75
2022/04/08 05:51:37;;;;;;;8.10;2.53;;;;;;;;;;5060443;28;20221;-77
2022/04/08 05:54:02;;;;;;;9.10;2.03;;;;;;;;;;5057955;28;20019;-74
2022/04/08 05:56:28;;;;;;;9.05;2.28;;;;;;;;;;5080188;28;20055;-74
2022/04/08 05:58:53;;;;;;;11.23;2.72;;;;;;;;;;5062842;28;20017;-75
2022/04/08 06:01:19;;;;;;;11.07;2.40;;;;;;;;;;5076434;28;20206;-74
2022/04/08 06:03:44;;;;;;;14.70;2.63;;;;;;;;;;5077702;28;20326;-75
2022/04/08 06:06:10;;;;;;;19.70;2.05;;;;;;;;;;5062353;28;20040;-75
2022/04/08 06:08:35;;;;;;;22.00;2.70;;;;;;;;;;5076698;28;20107;-74
2022/04/08 06:11:01;;;;;;;8.02;2.30;;;;;;;;;;5077940;28;20028;-75
2022/04/08 06:13:26;;;;;;;18.10;2.78;;;;;;;;;;5062845;28;20119;-74
2022/04/08 06:15:55;;;;;;;14.85;2.47;;;;;;;;;;5081147;28;20263;-74
2022/04/08 06:18:21;;;;;;;14.50;2.53;;;;;;;;;;5078191;28;20381;-74
2022/04/08 06:20:48;;;;;;;8.60;2.00;;;;;;;;;;5077351;28;20056;-74
2022/04/08 06:23:14;;;;;;;14.07;2.05;;;;;;;;;;5079655;28;20406;-75
2022/04/08 06:25:40;;;;;;;18.05;3.75;;;;;;;;;;5071232;28;20028;-74
2022/04/08 06:28:07;;;;;;;10.88;2.95;;;;;;;;;;5062867;28;20293;-74
2022/04/08 06:30:38;;;;;;;16.42;3.25;;;;;;;;;;5084016;28;20054;-74
2022/04/08 06:33:05;;;;;;;8.77;2.70;;;;;;;;;;5081973;28;20190;-74
2022/04/08 06:35:32;;;;;;;13.25;2.08;;;;;;;;;;5082764;28;20013;-74
2022/04/08 06:38:02;;;;;;;10.25;2.78;;;;;;;;;;5080617;28;20019;-74
2022/04/08 06:40:28;;;;;;;19.05;2.53;;;;;;;;;;5077116;28;20044;-74
2022/04/08 06:42:55;;;;;;;20.70;3.05;;;;;;;;;;5085647;28;20122;-74
2022/04/08 06:45:23;;;;;;;16.83;2.50;;;;;;;;;;5075858;28;20055;-74
2022/04/08 06:47:49;;;;;;;11.35;2.20;;;;;;;;;;5077924;28;20179;-74
2022/04/08 06:50:16;;;;;;;11.20;2.70;;;;;;;;;;5076674;28;20016;-74
2022/04/08 06:52:41;;;;;;;18.42;2.50;;;;;;;;;;5078909;28;20040;-74
2022/04/08 06:55:08;;;;;;;14.02;2.60;;;;;;;;;;5072543;28;20070;-74
2022/04/08 06:57:34;;;;;;;14.90;2.72;;;;;;;;;;5080793;28;20036;-75
2022/04/08 07:00:00;;;;;;;17.33;2.85;;;;;;;;;;5092524;28;20025;-75
2022/04/08 07:02:25;;;;;;;13.25;2.90;;;;;;;;;;5083541;28;20031;-74
2022/04/08 07:04:51;;;;;;;13.88;2.72;;;;;;;;;;5059292;28;20031;-74
2022/04/08 07:07:17;;;;;;;20.70;3.55;;;;;;;;;;5058247;28;20139;-75
2022/04/08 07:09:42;;;;;;;11.35;3.03;;;;;;;;;;5078101;28;20026;-75
2022/04/08 07:12:08;;;;;;;18.42;3.30;;;;;;;;;;5063977;28;20017;-74
2022/04/08 07:14:33;;;;;;;10.88;2.80;;;;;;;;;;5074907;28;20017;-74
2022/04/08 07:16:59;;;;;;;23.00;2.95;;;;;;;;;;5077155;28;20016;-75
2022/04/08 07:19:24;;;;;;;22.40;2.33;;;;;;;;;;5079152;28;20299;-74
2022/04/08 07:21:50;;;;;;;16.00;3.20;;;;;;;;;;5080540;28;20111;-74
2022/04/08 07:24:15;;;;;;;15.82;3.33;;;;;;;;;;5077836;28;20055;-75
2022/04/08 07:26:41;;;;;;;18.80;2.97;;;;;;;;;;5062573;28;20024;-74
2022/04/08 07:29:06;;;;;;;7.35;1.50;;;;;;;;;;5076490;28;20087;-75
2022/04/08 07:31:32;;;;;;;22.40;2.38;;;;;;;;;;5055194;28;20382;-74
2022/04/08 07:33:57;;;;;;;18.60;2.65;;;;;;;;;;5080032;28;20072;-74
2022/04/08 07:36:23;;;;;;;15.30;2.85;;;;;;;;;;5079949;28;20116;-75
2022/04/08 07:38:49;;;;;;;17.90;2.30;;;;;;;;;;5088237;28;20028;-74
2022/04/08 07:41:15;;;;;;;16.98;2.70;;;;;;;;;;5082605;28;20051;-74
2022/04/08 07:43:40;;;;;;;15.88;2.90;;;;;;;;;;5064759;28;20279;-74
2022/04/08 07:46:06;;;;;;;15.55;2.55;;;;;;;;;;5051622;28;20028;-74
2022/04/08 07:48:31;;;;;;;27.75;3.47;;;;;;;;;;5076586;28;20129;-75
2022/04/08 07:50:57;;;;;;;14.52;3.03;;;;;;;;;;5057584;28;20043;-75
2022/04/08 07:53:23;;;;;;;7.95;2.40;;;;;;;;;;5092418;28;20081;-74
2022/04/08 07:55:48;;;;;;;12.68;2.22;;;;;;;;;;5080794;28;20017;-75
2022/04/08 07:58:14;;;;;;;9.63;1.98;;;;;;;;;;5100811;28;20016;-73
2022/04/08 08:00:39;;;;;;;17.88;3.55;;;;;;;;;;5095712;28;20048;-74
2022/04/08 08:03:05;;;;;;;16.27;2.38;;;;;;;;;;5082871;28;20070;-75
2022/04/08 08:05:32;;;;;;;10.57;2.20;;;;;;;;;;5077509;28;20088;-74
2022/04/08 08:07:59;;;;;;;26.88;3.20;;;;;;;;;;5076210;28;20071;-74
2022/04/08 08:10:39;;;;;;;10.48;2.13;;;;;;;;;;5082959;28;20016;-74
2022/04/08 08:13:05;;;;;;;17.52;2.50;;;;;;;;;;5080929;28;20020;-74
2022/04/08 08:15:32;;;;;;;21.38;2.65;;;;;;;;;;5086066;28;20291;-75
2022/04/08 08:17:58;;;;;;;25.73;2.58;;;;;;;;;;5087540;28;20147;-74
2022/04/08 08:20:25;;;;;;;16.60;2.33;;;;;;;;;;5080305;28;20043;-75
2022/04/08 08:22:51;;;;;;;17.15;2.70;;;;;;;;;;5083965;28;20287;-74
2022/04/08 08:25:18;;;;;;;33.63;2.72;;;;;;;;;;5078871;28;20021;-74
2022/04/08 08:27:46;;;;;;;25.90;3.30;;;;;;;;;;5083028;28;20047;-74
2022/04/08 08:30:13;;;;;;;10.35;2.00;;;;;;;;;;5082304;28;20091;-75
2022/04/08 08:32:42;;;;;;;18.17;1.50;;;;;;;;;;5083884;28;20021;-74
2022/04/08 08:35:09;;;;;;;12.65;1.58;;;;;;;;;;5083856;28;20107;-74
2022/04/08 08:37:35;;;;;;;4.25;1.27;;;;;;;;;;5083565;28;20039;-75
2022/04/08 08:40:01;;;;;;;16.05;2.35;;;;;;;;;;5081703;28;20043;-76
2022/04/08 08:42:28;;;;;;;11.88;1.75;;;;;;;;;;5081616;28;20017;-73
2022/04/08 08:44:54;;;;;;;19.60;2.08;;;;;;;;;;5077824;28;20058;-73
2022/04/08 08:47:21;;;;;;;21.35;1.73;;;;;;;;;;5085131;28;20454;-73
2022/04/08 08:49:50;;;;;;;10.02;1.48;;;;;;;;;;5082203;28;20023;-73
2022/04/08 08:52:18;;;;;;;18.38;1.70;;;;;;;;;;5083689;28;20018;-72
2022/04/08 08:54:45;;;;;;;6.65;1.20;;;;;;;;;;5080666;28;20016;-73
2022/04/08 08:57:11;;;;;;;16.17;1.98;;;;;;;;;;5104273;28;20013;-73
2022/04/08 08:59:37;;;;;;;18.88;2.03;;;;;;;;;;5082352;28;20073;-73
2022/04/08 09:02:03;;;;;;;10.45;1.40;;;;;;;;;;5080855;28;20339;-72
2022/04/08 09:04:29;;;;;;;8.70;1.38;;;;;;;;;;5084240;28;20040;-74
2022/04/08 09:06:55;;;;;;;21.60;1.52;;;;;;;;;;5083524;28;20281;-73
2022/04/08 09:09:30;;;;;;;13.02;1.63;;;;;;;;;;5084199;28;20020;-73
2022/04/08 09:12:13;;;;;;;20.70;1.55;;;;;;;;;;5082730;28;20008;-73
2022/04/08 09:14:38;;;;;;;8.65;1.30;;;;;;;;;;5081403;28;20044;-72
2022/04/08 09:17:05;;;;;;;9.57;1.38;;;;;;;;;;5095661;28;20105;-74
2022/04/08 09:19:35;;;;;;;6.43;1.15;;;;;;;;;;5079669;28;20076;-73
2022/04/08 09:22:02;;;;;;;10.07;1.08;;;;;;;;;;5092550;28;20097;-73
2022/04/08 09:24:28;;;;;;;11.98;1.23;;;;;;;;;;5086520;28;20046;-73
2022/04/08 09:26:55;;;;;;;12.52;1.33;;;;;;;;;;5083088;28;20017;-73
2022/04/08 09:29:21;;;;;;;13.68;1.35;;;;;;;;;;5082951;28;20149;-72
2022/04/08 09:31:51;;;;;;;7.45;1.08;;;;;;;;;;5061624;28;20036;-73
2022/04/08 09:34:18;;;;;;;10.10;1.00;;;;;;;;;;5079060;28;20024;-73
2022/04/08 09:36:44;;;;;;;8.52;1.13;;;;;;;;;;5096370;28;20020;-72
2022/04/08 09:39:10;;;;;;;12.60;1.48;;;;;;;;;;5079827;28;20200;-73
2022/04/08 09:41:40;;;;;;;10.35;1.30;;;;;;;;;;5083123;28;20271;-73
2022/04/08 09:44:10;;;;;;;14.48;1.15;;;;;;;;;;5078692;28;20040;-74
2022/04/08 09:46:37;;;;;;;5.45;0.77;;;;;;;;;;5079707;28;20009;-73
2022/04/08 09:49:04;;;;;;;10.57;1.05;;;;;;;;;;5079678;28;20157;-72
2022/04/08 09:51:37;;;;;;;16.85;1.25;;;;;;;;;;5087766;28;20239;-73
2022/04/08 09:54:05;;;;;;;18.45;1.10;;;;;;;;;;5097795;28;20145;-74
2022/04/08 09:56:31;;;;;;;5.60;1.30;;;;;;;;;;5095385;28;20012;-74
2022/04/08 09:59:10;;;;;;;9.98;0.90;;;;;;;;;;5082907;28;20158;-73
2022/04/08 10:01:37;;;;;;;6.60;0.80;;;;;;;;;;5081445;28;20064;-74
2022/04/08 10:04:07;;;;;;;9.68;1.65;;;;;;;;;;5065034;28;20024;-75
2022/04/08 10:06:37;;;;;;;18.40;2.13;;;;;;;;;;5062779;28;20021;-74
2022/04/08 10:09:05;;;;;;;5.72;1.10;;;;;;;;;;5080596;28;20029;-73
2022/04/08 10:11:34;;;;;;;11.70;1.55;;;;;;;;;;5080086;28;20227;-74
2022/04/08 10:14:37;;;;;;;9.45;1.30;;;;;;;;;;5079382;28;20020;-74
2022/04/08 10:17:03;;;;;;;5.97;0.85;;;;;;;;;;5082225;28;20013;-73
2022/04/08 10:19:29;;;;;;;11.35;1.48;;;;;;;;;;5079379;28;20192;-73
2022/04/08 10:21:59;;;;;;;22.23;1.40;;;;;;;;;;5083266;28;20052;-74
2022/04/08 10:24:30;;;;;;;9.23;1.77;;;;;;;;;;5083140;28;20051;-74
2022/04/08 10:27:01;;;;;;;13.60;1.60;;;;;;;;;;5081264;28;20044;-74
2022/04/08 10:29:27;;;;;;;9.10;1.67;;;;;;;;;;5081932;28;20016;-74
2022/04/08 10:32:04;;;;;;;11.07;0.82;;;;;;;;;;5074238;28;20031;-75
2022/04/08 10:34:35;;;;;;;9.40;1.38;;;;;;;;;;5079292;28;20005;-74
2022/04/08 10:37:01;;;;;;;9.20;1.10;;;;;;;;;;5077557;28;20020;-74
2022/04/08 10:39:27;;;;;;;7.35;0.88;;;;;;;;;;5081093;28;20074;-74
2022/04/08 10:42:03;;;;;;;14.88;1.45;;;;;;;;;;5080974;28;20092;-74
2022/04/08 10:44:33;;;;;;;12.27;1.10;;;;;;;;;;5080400;28;20079;-74
2022/04/08 10:47:02;;;;;;;6.15;1.10;;;;;;;;;;5077859;28;20066;-74
2022/04/08 10:49:27;;;;;;;7.68;1.52;;;;;;;;;;5080528;28;20017;-74
2022/04/08 10:51:53;;;;;;;6.82;1.00;;;;;;;;;;5079530;28;20100;-74
2022/04/08 10:54:20;;;;;;;7.40;0.88;;;;;;;;;;5077639;28;20013;-74
2022/04/08 10:56:59;;;;;;;9.38;0.85;;;;;;;;;;5080942;28;20020;-73
2022/04/08 10:59:26;;;;;;;6.85;1.00;;;;;;;;;;5081724;28;20016;-73
2022/04/08 11:01:58;;;;;;;11.63;1.65;;;;;;;;;;5075236;28;20016;-74
2022/04/08 11:04:27;;;;;;;13.90;1.13;;;;;;;;;;5081393;28;20058;-74
2022/04/08 11:06:53;;;;;;;11.45;0.65;;;;;;;;;;5080950;28;20023;-75
2022/04/08 11:09:19;;;;;;;6.03;1.00;;;;;;;;;;5064040;28;20283;-74
2022/04/08 11:11:49;;;;;;;20.02;1.23;;;;;;;;;;5083040;28;20271;-74
2022/04/08 11:14:15;;;;;;;5.05;0.60;;;;;;;;;;5080173;28;20035;-75
2022/04/08 11:16:41;;;;;;;6.95;0.93;;;;;;;;;;5085054;28;20051;-75
2022/04/08 11:19:08;;;;;;;4.47;0.70;;;;;;;;;;5080497;28;20277;-74
2022/04/08 11:21:38;;;;;;;6.22;0.63;;;;;;;;;;5080214;28;20213;-73
2022/04/08 11:24:05;;;;;;;2.92;0.60;;;;;;;;;;5097673;28;20298;-74
2022/04/08 11:26:51;;;;;;;12.40;1.83;;;;;;;;;;5100895;28;20020;-74
2022/04/08 11:29:24;;;;;;;11.00;1.10;;;;;;;;;;5071986;28;20013;-74
2022/04/08 11:31:52;;;;;;;10.05;1.23;;;;;;;;;;5074620;28;20025;-74
2022/04/08 11:34:18;;;;;;;6.63;0.75;;;;;;;;;;5065813;28;20040;-73
2022/04/08 11:36:44;;;;;;;7.07;0.90;;;;;;;;;;5083575;28;20127;-74
2022/04/08 11:39:18;;;;;;;11.95;0.98;;;;;;;;;;5080503;28;20020;-74
2022/04/08 11:41:51;;;;;;;7.80;1.30;;;;;;;;;;5085227;28;20016;-74
2022/04/08 11:44:17;;;;;;;3.60;0.85;;;;;;;;;;5082968;28;20183;-75
2022/04/08 11:46:43;;;;;;;6.18;0.70;;;;;;;;;;5081029;28;20255;-74
2022/04/08 11:49:11;;;;;;;9.77;1.10;;;;;;;;;;5062252;28;20080;-74
2022/04/08 11:51:36;;;;;;;6.45;1.10;;;;;;;;;;5072635;28;20148;-74
2022/04/08 11:54:03;;;;;;;11.40;1.35;;;;;;;;;;5073062;28;20024;-75
2022/04/08 11:56:28;;;;;;;10.77;1.25;;;;;;;;;;5080014;28;20020;-74
2022/04/08 11:59:00;;;;;;;14.70;1.20;;;;;;;;;;5077074;28;20018;-74
2022/04/08 12:01:32;;;;;;;8.18;1.27;;;;;;;;;;5075048;28;20025;-75
2022/04/08 12:04:04;;;;;;;14.90;2.20;;;;;;;;;;5083085;28;20664;-74
2022/04/08 12:06:39;;;;;;;13.03;1.20;;;;;;;;;;5080269;28;20051;-75
2022/04/08 12:09:05;;;;;;;4.10;0.90;;;;;;;;;;5078264;28;20985;-74
2022/04/08 12:11:32;;;;;;;3.60;0.95;;;;;;;;;;5078762;28;20014;-74
2022/04/08 12:13:58;;;;;;;5.72;1.05;;;;;;;;;;5077606;28;20016;-74
2022/04/08 12:16:29;;;;;;;6.60;1.00;;;;;;;;;;5079544;28;20021;-75
2022/04/08 12:18:55;;;;;;;6.53;1.20;;;;;;;;;;5078699;28;20032;-75
2022/04/08 12:21:25;;;;;;;6.82;1.27;;;;;;;;;;5077784;28;20180;-74
2022/04/08 12:23:53;;;;;;;10.45;1.35;;;;;;;;;;5079570;28;20021;-75
2022/04/08 12:26:19;;;;;;;11.98;1.20;;;;;;;;;;5081039;28;20013;-74
2022/04/08 12:28:45;;;;;;;4.03;0.80;;;;;;;;;;5078407;28;20027;-74
2022/04/08 12:31:12;;;;;;;18.83;1.88;;;;;;;;;;5077660;28;20260;-74
2022/04/08 12:33:38;;;;;;;8.48;1.10;;;;;;;;;;5074556;28;20012;-74
2022/04/08 12:36:09;;;;;;;11.70;1.27;;;;;;;;;;5082551;28;20016;-75
2022/04/08 12:38:35;;;;;;;11.07;1.58;;;;;;;;;;5075451;28;20125;-75
2022/04/08 12:41:01;;;;;;;10.27;2.00;;;;;;;;;;5083035;28;20020;-75
2022/04/08 12:43:27;;;;;;;10.43;1.85;;;;;;;;;;5079716;28;20104;-75
2022/04/08 12:45:52;;;;;;;5.03;1.20;;;;;;;;;;5081976;28;20029;-75
2022/04/08 12:48:18;;;;;;;9.98;1.17;;;;;;;;;;5069282;28;20054;-75
2022/04/08 12:50:43;;;;;;;6.10;1.27;;;;;;;;;;5075973;28;20028;-74
2022/04/08 12:53:09;;;;;;;9.35;1.52;;;;;;;;;;5079673;28;20258;-75
2022/04/08 12:55:34;;;;;;;9.13;1.45;;;;;;;;;;5063681;28;20028;-74
2022/04/08 12:58:00;;;;;;;4.70;1.02;;;;;;;;;;5060478;28;20016;-75
2022/04/08 13:00:25;;;;;;;7.70;0.90;;;;;;;;;;5071455;28;20051;-74
2022/04/08 13:02:55;;;;;;;7.78;0.95;;;;;;;;;;5097593;28;20034;-75
2022/04/08 13:05:21;;;;;;;5.25;1.13;;;;;;;;;;5064777;28;20012;-75
2022/04/08 13:07:46;;;;;;;6.97;1.10;;;;;;;;;;5081293;28;20095;-74
2022/04/08 13:10:12;;;;;;;5.25;1.08;;;;;;;;;;5099434;28;20281;-74
2022/04/08 13:12:38;;;;;;;3.55;0.70;;;;;;;;;;5099863;28;20004;-74
2022/04/08 13:15:08;;;;;;;9.02;1.58;;;;;;;;;;5080549;28;20255;-74
2022/04/08 13:17:35;;;;;;;3.72;0.95;;;;;;;;;;5078609;28;20012;-74
2022/04/08 13:20:01;;;;;;;4.47;0.95;;;;;;;;;;5075267;28;20062;-74
2022/04/08 13:22:26;;;;;;;2.33;0.75;;;;;;;;;;5082719;28;20024;-74
2022/04/08 13:24:52;;;;;;;5.40;0.60;;;;;;;;;;5082198;28;20285;-74
2022/04/08 13:27:17;;;;;;;6.57;0.75;;;;;;;;;;5096657;28;20032;-75
2022/04/08 13:29:48;;;;;;;3.22;0.70;;;;;;;;;;5082812;28;20048;-74
2022/04/08 13:32:18;;;;;;;6.10;0.90;;;;;;;;;;5078236;28;20080;-75
2022/04/08 13:34:44;;;;;;;3.67;0.80;;;;;;;;;;5077865;28;20024;-75
2022/04/08 13:37:10;;;;;;;6.35;0.52;;;;;;;;;;5080823;28;20214;-75
2022/04/08 13:39:39;;;;;;;9.13;0.88;;;;;;;;;;5081270;28;20025;-73
2022/04/08 13:42:05;;;;;;;6.20;0.90;;;;;;;;;;5070998;28;20989;-75
2022/04/08 13:44:33;;;;;;;5.90;1.20;;;;;;;;;;5083525;28;20008;-74
2022/04/08 13:46:58;;;;;;;6.72;1.13;;;;;;;;;;5082140;28;20078;-74
2022/04/08 13:49:24;;;;;;;4.70;1.20;;;;;;;;;;5078664;28;20099;-73
2022/04/08 13:51:51;;;;;;;3.55;1.05;;;;;;;;;;5082694;28;20020;-73
2022/04/08 13:54:17;;;;;;;7.45;1.15;;;;;;;;;;5083072;28;20016;-73
2022/04/08 13:56:43;;;;;;;8.63;1.13;;;;;;;;;;5083880;28;20021;-73
2022/04/08 13:59:08;;;;;;;5.45;2.10;;;;;;;;;;5081243;28;20048;-73
2022/04/08 14:01:34;;;;;;;4.68;1.20;;;;;;;;;;5064836;28;20091;-73
2022/04/08 14:04:00;;;;;;;5.30;0.90;;;;;;;;;;5082212;28;20024;-74
2022/04/08 14:06:26;;;;;;;2.70;0.60;;;;;;;;;;5081776;28;20137;-73
2022/04/08 14:08:52;;;;;;;3.55;0.77;;;;;;;;;;5099529;28;20075;-73
2022/04/08 14:11:18;;;;;;;8.63;0.80;;;;;;;;;;5081391;28;20176;-74
2022/04/08 14:13:43;;;;;;;6.75;1.10;;;;;;;;;;5083036;28;20024;-73
2022/04/08 14:16:09;;;;;;;9.63;1.23;;;;;;;;;;5082334;28;20024;-73
2022/04/08 14:18:35;;;;;;;9.75;0.90;;;;;;;;;;5082109;28;20032;-74
2022/04/08 14:21:02;;;;;;;4.65;0.50;;;;;;;;;;5084664;28;20110;-73
2022/04/08 14:23:28;;;;;;;6.05;0.80;;;;;;;;;;5099427;28;20032;-72
2022/04/08 14:25:54;;;;;;;5.45;1.05;;;;;;;;;;5082559;28;20270;-72
2022/04/08 14:28:22;;;;;;;3.28;0.50;;;;;;;;;;5077184;28;20100;-72
2022/04/08 14:30:47;;;;;;;8.40;0.77;;;;;;;;;;5078765;28;20012;-75
2022/04/08 14:33:13;;;;;;;5.47;0.57;;;;;;;;;;5082843;28;20032;-75